Terminal Aerodrome Forecast
Issued by NWS

Home | Current Version | Previous Version | Text Only | Print | Product List | Glossary On
Versions: 1 2 3 4 5 6 7 8 9 10 11 12 13 14 15 16 17
000
FTUS42 KMLB 241600 AAC
TAFFPR
TAF AMD
KFPR 241607Z 2416/2512 20013KT P6SM FEW025 FEW040 BKN050
     FM241700 18011KT P6SM BKN035
     FM250100 18004KT P6SM SCT030 BKN250
     FM250800 17004KT 4SM BR BKN015=

USA.gov is the U.S. government's official web portal to all federal, state and local government web resources and services.